Archival Weather

Granbury Rgnl

Granbury, Texas (KGDJ)

Report from: Monday, January 29, 2024 10:35 PM UTC
Current time: Tuesday, June 18, 2024 1:24 PM UTC

Current weather – Weather history – Daily summaries
Weather forecast

Temperature22.2°C (72.0°F)
Dew point2.3°C (36.1°F)
Winds 3 kts (1.5 m/s, 3.5 mph) West (280°)
Visibility10 mi. (16.1 km)
Clouds Sky clear
Altimeter30.21 in.Hg (1023 mB)
Relative humidity27 %
Density altitude622 ft. (190 m)
Remarks Fully automated report
Automated weather observing station with precipitation discriminator
Flight conditions Visual Meteorological Conditions
Raw dataKGDJ 292235Z AUTO 28003KT 10SM CLR 22/02 A3021 RMK AO2 T02220023
An error has occurred. This application may no longer respond until reloaded. Reload 🗙